メインページ
METAR-TAF:

METAR-TAF

空港 :

アテネ国際空港

アテネ, ギリシャ

緯度: 37-56N, 経度: 023-56E, 海抜: 94m

現時点の気象観測

当レポートは16分前の07:20(UTC)に作成
の風 21kt
気温 30°C
湿度 38%
気圧 1010 hPa
視程10km以上
高度3000ftの雲はほとんどない

METAR: LGAV 190720Z 36021KT 9999 FEW030 30/14 Q1010 NOSIG

時間: 10:36 (07:36 UTC)

予報

当レポートは2時間36分前の05:00(UTC)に作成
予報は19日の 06時(UTC)から 20日の 06時(UTC)まで有効
の風 14kt、最大24ktの突風を伴う
視程10km以上
高度3000ftの雲はほとんどない
19日の 09時(UTC)から 19日の 18時(UTC)まで一時的に
の風 22kt、最大32ktの突風を伴う

TAF: LGAV 190500Z 1906/2006 35014G24KT 9999 FEW030 TEMPO 1909/1918 01022G32KT

4,000以上の空港の気象観測と天気予報(METAR報とTAF報)

利用可能な観測所は地図上に黄色い丸と赤い丸で示す。

丸の上にカーソルを重ねると観測所名を参照できる。

次にクリックすると気象観測と天気予報を参照できる。

マップの切り替え:黒色「×」印の緑ボタンをクリックして拡大、「-」印の緑ボタンをクリックして縮小、緑色の三角印をクリックして隣りの地図に切り替え


METAR-TAF: